sensor_id;sensor_type;location;lat;lon;timestamp;pressure;altitude;pressure_sealevel;temperature;humidity
3082;BME280;1551;51.046;7.010;2023-04-16T00:01:25;101277.22;;;10.15;nan
3082;BME280;1551;51.046;7.010;2023-04-16T00:04:14;101278.03;;;10.08;nan
3082;BME280;1551;51.046;7.010;2023-04-16T00:07:03;101272.09;;;10.03;nan
3082;BME280;1551;51.046;7.010;2023-04-16T00:09:51;101276.34;;;9.94;nan
3082;BME280;1551;51.046;7.010;2023-04-16T00:12:40;101275.47;;;9.93;nan
3082;BME280;1551;51.046;7.010;2023-04-16T00:15:30;101275.47;;;9.90;nan
3082;BME280;1551;51.046;7.010;2023-04-16T00:18:19;101267.81;;;9.96;nan
3082;BME280;1551;51.046;7.010;2023-04-16T00:21:08;101276.31;;;10.01;nan
3082;BME280;1551;51.046;7.010;2023-04-16T00:23:58;101278.06;;;9.96;nan
3082;BME280;1551;51.046;7.010;2023-04-16T00:26:47;101279.75;;;9.96;nan
3082;BME280;1551;51.046;7.010;2023-04-16T00:29:37;101284.84;;;9.94;nan
3082;BME280;1551;51.046;7.010;2023-04-16T00:32:26;101269.50;;;9.94;nan
3082;BME280;1551;51.046;7.010;2023-04-16T00:35:15;101283.19;;;10.05;nan
3082;BME280;1551;51.046;7.010;2023-04-16T00:38:04;101284.00;;;10.00;nan
3082;BME280;1551;51.046;7.010;2023-04-16T00:40:53;101276.34;;;10.06;nan
3082;BME280;1551;51.046;7.010;2023-04-16T00:43:42;101278.94;;;10.18;nan
3082;BME280;1551;51.046;7.010;2023-04-16T00:46:31;101283.16;;;10.08;nan
3082;BME280;1551;51.046;7.010;2023-04-16T00:49:20;101284.91;;;10.12;nan
3082;BME280;1551;51.046;7.010;2023-04-16T00:52:10;101285.75;;;10.11;nan
3082;BME280;1551;51.046;7.010;2023-04-16T00:55:00;101274.66;;;10.08;nan
3082;BME280;1551;51.046;7.010;2023-04-16T00:57:49;101278.94;;;10.25;nan
3082;BME280;1551;51.046;7.010;2023-04-16T01:00:38;101290.06;;;10.33;nan
3082;BME280;1551;51.046;7.010;2023-04-16T01:03:36;101283.22;;;10.29;nan
3082;BME280;1551;51.046;7.010;2023-04-16T01:06:26;101291.78;;;10.31;nan
3082;BME280;1551;51.046;7.010;2023-04-16T01:09:15;101284.06;;;10.22;nan
3082;BME280;1551;51.046;7.010;2023-04-16T01:12:05;101280.66;;;10.23;nan
3082;BME280;1551;51.046;7.010;2023-04-16T01:14:54;101280.66;;;10.26;nan
3082;BME280;1551;51.046;7.010;2023-04-16T01:17:46;101270.44;;;10.14;nan
3082;BME280;1551;51.046;7.010;2023-04-16T01:20:35;101286.63;;;10.13;nan
3082;BME280;1551;51.046;7.010;2023-04-16T01:23:24;101273.81;;;10.13;nan
3082;BME280;1551;51.046;7.010;2023-04-16T01:26:13;101283.16;;;10.08;nan
3082;BME280;1551;51.046;7.010;2023-04-16T01:29:04;101287.44;;;10.08;nan
3082;BME280;1551;51.046;7.010;2023-04-16T01:31:52;101299.38;;;10.09;nan
3082;BME280;1551;51.046;7.010;2023-04-16T01:34:49;101284.88;;;10.09;nan
3082;BME280;1551;51.046;7.010;2023-04-16T01:37:38;101286.63;;;10.13;nan
3082;BME280;1551;51.046;7.010;2023-04-16T01:40:26;101276.34;;;10.03;nan
3082;BME280;1551;51.046;7.010;2023-04-16T01:43:15;101288.25;;;10.04;nan
3082;BME280;1551;51.046;7.010;2023-04-16T01:46:20;101297.66;;;10.11;nan
3082;BME280;1551;51.046;7.010;2023-04-16T01:49:11;101291.72;;;10.12;nan
3082;BME280;1551;51.046;7.010;2023-04-16T01:52:00;101296.84;;;10.21;nan
3082;BME280;1551;51.046;7.010;2023-04-16T01:54:49;101295.09;;;10.09;nan
3082;BME280;1551;51.046;7.010;2023-04-16T01:57:38;101303.63;;;10.08;nan
3082;BME280;1551;51.046;7.010;2023-04-16T02:00:27;101305.34;;;10.09;nan
3082;BME280;1551;51.046;7.010;2023-04-16T02:03:16;101295.09;;;10.06;nan
3082;BME280;1551;51.046;7.010;2023-04-16T02:06:06;101293.47;;;10.17;nan
3082;BME280;1551;51.046;7.010;2023-04-16T02:08:55;101301.97;;;10.21;nan
3082;BME280;1551;51.046;7.010;2023-04-16T02:11:44;101292.59;;;10.21;nan
3082;BME280;1551;51.046;7.010;2023-04-16T02:14:33;101290.03;;;10.21;nan
3082;BME280;1551;51.046;7.010;2023-04-16T02:17:21;101294.28;;;10.18;nan
3082;BME280;1551;51.046;7.010;2023-04-16T02:20:12;101287.47;;;10.14;nan
3082;BME280;1551;51.046;7.010;2023-04-16T02:23:10;101308.81;;;10.17;nan
3082;BME280;1551;51.046;7.010;2023-04-16T02:26:01;101296.00;;;10.19;nan
3082;BME280;1551;51.046;7.010;2023-04-16T02:28:51;101300.25;;;10.18;nan
3082;BME280;1551;51.046;7.010;2023-04-16T02:31:45;101302.84;;;10.21;nan
3082;BME280;1551;51.046;7.010;2023-04-16T02:34:35;101274.66;;;10.08;nan
3082;BME280;1551;51.046;7.010;2023-04-16T02:37:27;101291.72;;;10.12;nan
3082;BME280;1551;51.046;7.010;2023-04-16T02:40:16;101295.13;;;10.15;nan
3082;BME280;1551;51.046;7.010;2023-04-16T02:43:05;101292.59;;;10.12;nan
3082;BME280;1551;51.046;7.010;2023-04-16T02:45:55;101287.41;;;10.06;nan
3082;BME280;1551;51.046;7.010;2023-04-16T02:48:44;101272.91;;;9.92;nan
3082;BME280;1551;51.046;7.010;2023-04-16T02:51:32;101293.41;;;10.07;nan
3082;BME280;1551;51.046;7.010;2023-04-16T02:54:21;101292.53;;;10.11;nan
3082;BME280;1551;51.046;7.010;2023-04-16T02:57:11;101298.50;;;10.08;nan
3082;BME280;1551;51.046;7.010;2023-04-16T03:00:00;101295.94;;;9.96;nan
3082;BME280;1551;51.046;7.010;2023-04-16T03:02:49;101298.50;;;9.98;nan
3082;BME280;1551;51.046;7.010;2023-04-16T03:05:38;101295.94;;;10.04;nan
3082;BME280;1551;51.046;7.010;2023-04-16T03:08:27;101296.78;;;10.06;nan
3082;BME280;1551;51.046;7.010;2023-04-16T03:11:16;101303.63;;;10.02;nan
3082;BME280;1551;51.046;7.010;2023-04-16T03:14:05;101296.78;;;10.00;nan
3082;BME280;1551;51.046;7.010;2023-04-16T03:16:55;101295.06;;;9.99;nan
3082;BME280;1551;51.046;7.010;2023-04-16T03:19:44;101300.19;;;9.97;nan
3082;BME280;1551;51.046;7.010;2023-04-16T03:22:34;101296.81;;;9.98;nan
3082;BME280;1551;51.046;7.010;2023-04-16T03:25:23;101306.19;;;10.07;nan
3082;BME280;1551;51.046;7.010;2023-04-16T03:28:13;101308.75;;;10.05;nan
3082;BME280;1551;51.046;7.010;2023-04-16T03:31:02;101311.28;;;10.04;nan
3082;BME280;1551;51.046;7.010;2023-04-16T03:33:52;101308.72;;;9.99;nan
3082;BME280;1551;51.046;7.010;2023-04-16T03:36:41;101314.69;;;9.97;nan
3082;BME280;1551;51.046;7.010;2023-04-16T03:39:31;101320.66;;;9.91;nan
3082;BME280;1551;51.046;7.010;2023-04-16T03:42:20;101329.16;;;9.92;nan
3082;BME280;1551;51.046;7.010;2023-04-16T03:45:09;101324.88;;;9.86;nan
3082;BME280;1551;51.046;7.010;2023-04-16T03:48:00;101322.34;;;9.92;nan
3082;BME280;1551;51.046;7.010;2023-04-16T03:50:49;101321.50;;;9.93;nan
3082;BME280;1551;51.046;7.010;2023-04-16T03:53:41;101316.38;;;9.93;nan
3082;BME280;1551;51.046;7.010;2023-04-16T03:56:31;101315.56;;;10.00;nan
3082;BME280;1551;51.046;7.010;2023-04-16T03:59:20;101319.78;;;9.97;nan
3082;BME280;1551;51.046;7.010;2023-04-16T04:02:09;101319.78;;;9.97;nan
3082;BME280;1551;51.046;7.010;2023-04-16T04:04:58;101321.53;;;10.01;nan
3082;BME280;1551;51.046;7.010;2023-04-16T04:07:47;101315.56;;;10.00;nan
3082;BME280;1551;51.046;7.010;2023-04-16T04:10:36;101324.97;;;10.10;nan
3082;BME280;1551;51.046;7.010;2023-04-16T04:13:27;101317.25;;;10.06;nan
3082;BME280;1551;51.046;7.010;2023-04-16T04:16:18;101313.03;;;10.08;nan
3082;BME280;1551;51.046;7.010;2023-04-16T04:19:07;101318.97;;;10.08;nan
3082;BME280;1551;51.046;7.010;2023-04-16T04:21:58;101324.13;;;10.11;nan
3082;BME280;1551;51.046;7.010;2023-04-16T04:24:47;101324.94;;;10.04;nan
3082;BME280;1551;51.046;7.010;2023-04-16T04:27:36;101315.56;;;10.03;nan
3082;BME280;1551;51.046;7.010;2023-04-16T04:30:25;101328.41;;;10.12;nan
3082;BME280;1551;51.046;7.010;2023-04-16T04:33:14;101335.22;;;10.12;nan
3082;BME280;1551;51.046;7.010;2023-04-16T04:36:05;101341.19;;;10.20;nan
3082;BME280;1551;51.046;7.010;2023-04-16T04:38:55;101350.59;;;10.25;nan
3082;BME280;1551;51.046;7.010;2023-04-16T04:41:45;101349.75;;;10.26;nan
3082;BME280;1551;51.046;7.010;2023-04-16T04:44:33;101348.03;;;10.25;nan
3082;BME280;1551;51.046;7.010;2023-04-16T04:47:22;101345.47;;;10.19;nan
3082;BME280;1551;51.046;7.010;2023-04-16T04:50:11;101351.44;;;10.23;nan
3082;BME280;1551;51.046;7.010;2023-04-16T04:53:00;101352.28;;;10.23;nan
3082;BME280;1551;51.046;7.010;2023-04-16T04:55:49;101344.63;;;10.23;nan
3082;BME280;1551;51.046;7.010;2023-04-16T04:58:39;101348.06;;;10.38;nan
3082;BME280;1551;51.046;7.010;2023-04-16T05:01:29;101354.00;;;10.41;nan
3082;BME280;1551;51.046;7.010;2023-04-16T05:04:17;101360.00;;;10.35;nan
3082;BME280;1551;51.046;7.010;2023-04-16T05:07:07;101363.41;;;10.42;nan
3082;BME280;1551;51.046;7.010;2023-04-16T05:09:56;101363.41;;;10.44;nan
3082;BME280;1551;51.046;7.010;2023-04-16T05:12:45;101350.63;;;10.41;nan
3082;BME280;1551;51.046;7.010;2023-04-16T05:15:36;101357.44;;;10.45;nan
3082;BME280;1551;51.046;7.010;2023-04-16T05:18:25;101354.84;;;10.38;nan
3082;BME280;1551;51.046;7.010;2023-04-16T05:21:14;101365.13;;;10.35;nan
3082;BME280;1551;51.046;7.010;2023-04-16T05:24:03;101342.03;;;10.25;nan
3082;BME280;1551;51.046;7.010;2023-04-16T05:26:52;101354.88;;;10.26;nan
3082;BME280;1551;51.046;7.010;2023-04-16T05:29:41;101375.34;;;10.37;nan
3082;BME280;1551;51.046;7.010;2023-04-16T05:32:29;101371.09;;;10.36;nan
3082;BME280;1551;51.046;7.010;2023-04-16T05:35:18;101382.16;;;10.33;nan
3082;BME280;1551;51.046;7.010;2023-04-16T05:38:07;101380.44;;;10.32;nan
3082;BME280;1551;51.046;7.010;2023-04-16T05:40:57;101382.16;;;10.30;nan
3082;BME280;1551;51.046;7.010;2023-04-16T05:43:46;101376.19;;;10.31;nan
3082;BME280;1551;51.046;7.010;2023-04-16T05:46:35;101383.03;;;10.45;nan
3082;BME280;1551;51.046;7.010;2023-04-16T05:49:23;101374.47;;;10.36;nan
3082;BME280;1551;51.046;7.010;2023-04-16T05:52:12;101389.00;;;10.38;nan
3082;BME280;1551;51.046;7.010;2023-04-16T05:55:02;101394.97;;;10.44;nan
3082;BME280;1551;51.046;7.010;2023-04-16T05:57:51;101377.88;;;10.32;nan
3082;BME280;1551;51.046;7.010;2023-04-16T06:00:40;101389.81;;;10.36;nan
3082;BME280;1551;51.046;7.010;2023-04-16T06:03:29;101391.56;;;10.45;nan
3082;BME280;1551;51.046;7.010;2023-04-16T06:06:18;101387.31;;;10.43;nan
3082;BME280;1551;51.046;7.010;2023-04-16T06:09:07;101396.69;;;10.41;nan
3082;BME280;1551;51.046;7.010;2023-04-16T06:11:56;101403.50;;;10.42;nan
3082;BME280;1551;51.046;7.010;2023-04-16T06:14:45;101401.78;;;10.44;nan
3082;BME280;1551;51.046;7.010;2023-04-16T06:17:34;101404.38;;;10.50;nan
3082;BME280;1551;51.046;7.010;2023-04-16T06:20:23;101406.91;;;10.48;nan
3082;BME280;1551;51.046;7.010;2023-04-16T06:23:12;101398.41;;;10.48;nan
3082;BME280;1551;51.046;7.010;2023-04-16T06:26:01;101400.06;;;10.40;nan
3082;BME280;1551;51.046;7.010;2023-04-16T06:28:50;101388.97;;;10.34;nan
3082;BME280;1551;51.046;7.010;2023-04-16T06:31:39;101404.34;;;10.48;nan
3082;BME280;1551;51.046;7.010;2023-04-16T06:34:28;101417.16;;;10.41;nan
3082;BME280;1551;51.046;7.010;2023-04-16T06:37:17;101418.88;;;10.48;nan
3082;BME280;1551;51.046;7.010;2023-04-16T06:40:06;101424.00;;;10.54;nan
3082;BME280;1551;51.046;7.010;2023-04-16T06:42:55;101423.16;;;10.64;nan
3082;BME280;1551;51.046;7.010;2023-04-16T06:45:44;101418.06;;;10.73;nan
3082;BME280;1551;51.046;7.010;2023-04-16T06:48:33;101426.59;;;10.82;nan
3082;BME280;1551;51.046;7.010;2023-04-16T06:51:23;101428.28;;;10.88;nan
3082;BME280;1551;51.046;7.010;2023-04-16T06:54:12;101435.97;;;10.86;nan
3082;BME280;1551;51.046;7.010;2023-04-16T06:57:01;101438.53;;;10.79;nan
3082;BME280;1551;51.046;7.010;2023-04-16T06:59:50;101429.13;;;10.72;nan
3082;BME280;1551;51.046;7.010;2023-04-16T07:02:39;101421.47;;;10.69;nan
3082;BME280;1551;51.046;7.010;2023-04-16T07:05:28;101442.81;;;10.83;nan
3082;BME280;1551;51.046;7.010;2023-04-16T07:08:17;101443.66;;;10.80;nan
3082;BME280;1551;51.046;7.010;2023-04-16T07:11:06;101428.28;;;10.79;nan
3082;BME280;1551;51.046;7.010;2023-04-16T07:13:54;101443.66;;;10.79;nan
3082;BME280;1551;51.046;7.010;2023-04-16T07:16:45;101436.00;;;10.76;nan
3082;BME280;1551;51.046;7.010;2023-04-16T07:19:34;101451.34;;;10.82;nan
3082;BME280;1551;51.046;7.010;2023-04-16T07:22:23;101436.81;;;10.75;nan
3082;BME280;1551;51.046;7.010;2023-04-16T07:25:12;101443.66;;;10.91;nan
3082;BME280;1551;51.046;7.010;2023-04-16T07:28:02;101448.78;;;10.95;nan
3082;BME280;1551;51.046;7.010;2023-04-16T07:30:51;101447.06;;;11.02;nan
3082;BME280;1551;51.046;7.010;2023-04-16T07:33:40;101437.69;;;10.92;nan
3082;BME280;1551;51.046;7.010;2023-04-16T07:36:29;101455.63;;;11.07;nan
3082;BME280;1551;51.046;7.010;2023-04-16T07:39:19;101453.06;;;11.15;nan
3082;BME280;1551;51.046;7.010;2023-04-16T07:42:08;101445.38;;;11.30;nan
3082;BME280;1551;51.046;7.010;2023-04-16T07:44:57;101446.22;;;11.35;nan
3082;BME280;1551;51.046;7.010;2023-04-16T07:47:46;101453.91;;;11.35;nan
3082;BME280;1551;51.046;7.010;2023-04-16T07:50:35;101445.34;;;11.43;nan
3082;BME280;1551;51.046;7.010;2023-04-16T07:53:24;101455.59;;;11.54;nan
3082;BME280;1551;51.046;7.010;2023-04-16T07:56:13;101462.44;;;11.53;nan
3082;BME280;1551;51.046;7.010;2023-04-16T07:59:02;101459.03;;;11.45;nan
3082;BME280;1551;51.046;7.010;2023-04-16T08:01:52;101459.88;;;11.52;nan
3082;BME280;1551;51.046;7.010;2023-04-16T08:04:42;101474.38;;;11.51;nan
3082;BME280;1551;51.046;7.010;2023-04-16T08:07:31;101474.38;;;11.62;nan
3082;BME280;1551;51.046;7.010;2023-04-16T08:10:20;101464.97;;;11.65;nan
3082;BME280;1551;51.046;7.010;2023-04-16T08:13:09;101479.53;;;11.74;nan
3082;BME280;1551;51.046;7.010;2023-04-16T08:15:58;101457.28;;;11.67;nan
3082;BME280;1551;51.046;7.010;2023-04-16T08:18:47;101488.06;;;11.71;nan
3082;BME280;1551;51.046;7.010;2023-04-16T08:21:36;101491.47;;;11.64;nan
3082;BME280;1551;51.046;7.010;2023-04-16T08:24:25;101487.19;;;11.56;nan
3082;BME280;1551;51.046;7.010;2023-04-16T08:27:14;101493.19;;;11.62;nan
3082;BME280;1551;51.046;7.010;2023-04-16T08:30:04;101501.75;;;11.81;nan
3082;BME280;1551;51.046;7.010;2023-04-16T08:32:54;101498.28;;;11.91;nan
3082;BME280;1551;51.046;7.010;2023-04-16T08:35:43;101497.44;;;11.92;nan
3082;BME280;1551;51.046;7.010;2023-04-16T08:38:32;101498.25;;;11.99;nan
3082;BME280;1551;51.046;7.010;2023-04-16T08:41:21;101509.34;;;12.19;nan
3082;BME280;1551;51.046;7.010;2023-04-16T08:44:20;101497.34;;;12.21;nan
3082;BME280;1551;51.046;7.010;2023-04-16T08:47:10;101493.06;;;12.15;nan
3082;BME280;1551;51.046;7.010;2023-04-16T08:50:02;101507.59;;;12.19;nan
3082;BME280;1551;51.046;7.010;2023-04-16T08:52:55;101508.44;;;12.20;nan
3082;BME280;1551;51.046;7.010;2023-04-16T08:55:47;101515.28;;;12.27;nan
3082;BME280;1551;51.046;7.010;2023-04-16T08:58:38;101500.72;;;12.24;nan
3082;BME280;1551;51.046;7.010;2023-04-16T09:01:27;101513.50;;;12.47;nan
3082;BME280;1551;51.046;7.010;2023-04-16T09:04:17;101522.84;;;12.57;nan
3082;BME280;1551;51.046;7.010;2023-04-16T09:07:07;101522.00;;;12.58;nan
3082;BME280;1551;51.046;7.010;2023-04-16T09:09:58;101527.94;;;12.68;nan
3082;BME280;1551;51.046;7.010;2023-04-16T09:12:48;101520.19;;;12.74;nan
3082;BME280;1551;51.046;7.010;2023-04-16T09:15:38;101519.28;;;12.81;nan
3082;BME280;1551;51.046;7.010;2023-04-16T09:18:27;101520.03;;;12.96;nan
3082;BME280;1551;51.046;7.010;2023-04-16T09:21:16;101522.66;;;12.87;nan
3082;BME280;1551;51.046;7.010;2023-04-16T09:24:05;101513.38;;;12.68;nan
3082;BME280;1551;51.046;7.010;2023-04-16T09:26:55;101522.75;;;12.75;nan
3082;BME280;1551;51.046;7.010;2023-04-16T09:29:44;101528.78;;;12.73;nan
3082;BME280;1551;51.046;7.010;2023-04-16T09:32:33;101534.72;;;12.82;nan
3082;BME280;1551;51.046;7.010;2023-04-16T09:35:24;101540.66;;;12.89;nan
3082;BME280;1551;51.046;7.010;2023-04-16T09:38:13;101532.13;;;12.84;nan
3082;BME280;1551;51.046;7.010;2023-04-16T09:41:06;101547.59;;;12.75;nan
3082;BME280;1551;51.046;7.010;2023-04-16T09:43:56;101544.09;;;12.83;nan
3082;BME280;1551;51.046;7.010;2023-04-16T09:46:46;101547.53;;;12.87;nan
3082;BME280;1551;51.046;7.010;2023-04-16T09:49:40;101543.31;;;12.71;nan
3082;BME280;1551;51.046;7.010;2023-04-16T09:52:30;101554.50;;;12.62;nan
3082;BME280;1551;51.046;7.010;2023-04-16T09:55:26;101546.75;;;12.67;nan
3082;BME280;1551;51.046;7.010;2023-04-16T09:58:18;101548.50;;;12.63;nan
3082;BME280;1551;51.046;7.010;2023-04-16T10:01:10;101551.91;;;12.65;nan
3082;BME280;1551;51.046;7.010;2023-04-16T10:04:00;101565.59;;;12.70;nan
3082;BME280;1551;51.046;7.010;2023-04-16T10:07:05;101561.22;;;12.86;nan
3082;BME280;1551;51.046;7.010;2023-04-16T10:09:54;101562.84;;;12.99;nan
3082;BME280;1551;51.046;7.010;2023-04-16T10:12:44;101566.19;;;13.21;nan
3082;BME280;1551;51.046;7.010;2023-04-16T10:15:32;101565.97;;;13.49;nan
3082;BME280;1551;51.046;7.010;2023-04-16T10:18:22;101562.41;;;13.62;nan
3082;BME280;1551;51.046;7.010;2023-04-16T10:21:11;101566.50;;;13.88;nan
3082;BME280;1551;51.046;7.010;2023-04-16T10:24:01;101562.22;;;13.85;nan
3082;BME280;1551;51.046;7.010;2023-04-16T10:26:51;101563.25;;;13.64;nan
3082;BME280;1551;51.046;7.010;2023-04-16T10:29:41;101554.00;;;13.44;nan
3082;BME280;1551;51.046;7.010;2023-04-16T10:32:31;101565.94;;;13.51;nan
3082;BME280;1551;51.046;7.010;2023-04-16T10:35:20;101564.06;;;13.72;nan
3082;BME280;1551;51.046;7.010;2023-04-16T10:38:45;101565.63;;;13.87;nan
3082;BME280;1551;51.046;7.010;2023-04-16T10:41:35;101571.69;;;13.83;nan
3082;BME280;1551;51.046;7.010;2023-04-16T10:44:25;101567.13;;;14.08;nan
3082;BME280;1551;51.046;7.010;2023-04-16T10:47:14;101566.22;;;14.12;nan
3082;BME280;1551;51.046;7.010;2023-04-16T10:50:14;101566.06;;;14.28;nan
3082;BME280;1551;51.046;7.010;2023-04-16T10:53:36;101565.72;;;14.59;nan
3082;BME280;1551;51.046;7.010;2023-04-16T10:56:25;101555.59;;;14.45;nan
3082;BME280;1551;51.046;7.010;2023-04-16T10:59:22;101565.66;;;14.65;nan
3082;BME280;1551;51.046;7.010;2023-04-16T11:02:14;101561.47;;;14.55;nan
3082;BME280;1551;51.046;7.010;2023-04-16T11:05:03;101567.75;;;14.32;nan
3082;BME280;1551;51.046;7.010;2023-04-16T11:07:52;101562.63;;;14.31;nan
3082;BME280;1551;51.046;7.010;2023-04-16T11:10:41;101565.63;;;14.66;nan
3082;BME280;1551;51.046;7.010;2023-04-16T11:13:30;101569.41;;;15.03;nan
3082;BME280;1551;51.046;7.010;2023-04-16T11:16:20;101572.38;;;15.34;nan
3082;BME280;1551;51.046;7.010;2023-04-16T11:19:15;101570.53;;;15.44;nan
3082;BME280;1551;51.046;7.010;2023-04-16T11:22:04;101575.63;;;15.48;nan
3082;BME280;1551;51.046;7.010;2023-04-16T11:24:55;101570.97;;;15.17;nan
3082;BME280;1551;51.046;7.010;2023-04-16T11:27:44;101557.50;;;14.93;nan
3082;BME280;1551;51.046;7.010;2023-04-16T11:30:34;101545.50;;;14.92;nan
3082;BME280;1551;51.046;7.010;2023-04-16T11:33:24;101569.78;;;15.37;nan
3082;BME280;1551;51.046;7.010;2023-04-16T11:36:13;101575.47;;;15.59;nan
3082;BME280;1551;51.046;7.010;2023-04-16T11:39:03;101576.34;;;15.58;nan
3082;BME280;1551;51.046;7.010;2023-04-16T11:41:52;101576.41;;;15.53;nan
3082;BME280;1551;51.046;7.010;2023-04-16T11:44:42;101559.41;;;15.39;nan
3082;BME280;1551;51.046;7.010;2023-04-16T11:47:41;101578.47;;;15.30;nan
3082;BME280;1551;51.046;7.010;2023-04-16T11:50:31;101574.19;;;15.29;nan
3082;BME280;1551;51.046;7.010;2023-04-16T11:53:20;101580.19;;;15.85;nan
3082;BME280;1551;51.046;7.010;2023-04-16T11:56:09;101566.63;;;16.19;nan
3082;BME280;1551;51.046;7.010;2023-04-16T12:01:57;101576.41;;;15.53;nan
3082;BME280;1551;51.046;7.010;2023-04-16T12:04:46;101584.19;;;15.52;nan
3082;BME280;1551;51.046;7.010;2023-04-16T12:07:44;101575.97;;;15.24;nan
3082;BME280;1551;51.046;7.010;2023-04-16T12:10:35;101581.06;;;15.30;nan
3082;BME280;1551;51.046;7.010;2023-04-16T12:13:25;101566.66;;;17.02;nan
3082;BME280;1551;51.046;7.010;2023-04-16T12:16:18;101581.16;;;17.81;nan
3082;BME280;1551;51.046;7.010;2023-04-16T12:19:10;101577.66;;;17.10;nan
3082;BME280;1551;51.046;7.010;2023-04-16T12:22:00;101578.25;;;17.23;nan
3082;BME280;1551;51.046;7.010;2023-04-16T12:24:54;101574.66;;;17.28;nan
3082;BME280;1551;51.046;7.010;2023-04-16T12:30:48;101578.63;;;17.43;nan
3082;BME280;1551;51.046;7.010;2023-04-16T12:33:38;101584.03;;;16.95;nan
3082;BME280;1551;51.046;7.010;2023-04-16T12:36:26;101584.88;;;16.56;nan
3082;BME280;1551;51.046;7.010;2023-04-16T12:39:15;101584.28;;;16.42;nan
3082;BME280;1551;51.046;7.010;2023-04-16T12:42:04;101578.47;;;16.31;nan
3082;BME280;1551;51.046;7.010;2023-04-16T12:44:57;101585.31;;;16.32;nan
3082;BME280;1551;51.046;7.010;2023-04-16T12:47:46;101580.00;;;16.39;nan
3082;BME280;1551;51.046;7.010;2023-04-16T12:50:35;101585.88;;;16.47;nan
3082;BME280;1551;51.046;7.010;2023-04-16T12:53:24;101587.47;;;16.56;nan
3082;BME280;1551;51.046;7.010;2023-04-16T12:56:14;101577.84;;;16.63;nan
3082;BME280;1551;51.046;7.010;2023-04-16T12:59:03;101587.13;;;16.73;nan
3082;BME280;1551;51.046;7.010;2023-04-16T13:01:52;101581.34;;;16.60;nan
3082;BME280;1551;51.046;7.010;2023-04-16T13:04:41;101574.59;;;16.53;nan
3082;BME280;1551;51.046;7.010;2023-04-16T13:07:30;101578.06;;;16.50;nan
3082;BME280;1551;51.046;7.010;2023-04-16T13:10:21;101578.28;;;16.40;nan
3082;BME280;1551;51.046;7.010;2023-04-16T13:13:11;101583.72;;;16.25;nan
3082;BME280;1551;51.046;7.010;2023-04-16T13:16:00;101580.31;;;16.24;nan
3082;BME280;1551;51.046;7.010;2023-04-16T13:18:51;101568.69;;;16.02;nan
3082;BME280;1551;51.046;7.010;2023-04-16T13:21:40;101576.16;;;16.16;nan
3082;BME280;1551;51.046;7.010;2023-04-16T13:24:29;101580.63;;;16.08;nan
3082;BME280;1551;51.046;7.010;2023-04-16T13:27:18;101572.06;;;16.06;nan
3082;BME280;1551;51.046;7.010;2023-04-16T13:30:07;101575.84;;;16.34;nan
3082;BME280;1551;51.046;7.010;2023-04-16T13:32:56;101575.06;;;16.72;nan
3082;BME280;1551;51.046;7.010;2023-04-16T13:35:47;101552.38;;;16.84;nan
3082;BME280;1551;51.046;7.010;2023-04-16T13:38:36;101581.22;;;17.04;nan
3082;BME280;1551;51.046;7.010;2023-04-16T13:41:27;101571.31;;;16.86;nan
3082;BME280;1551;51.046;7.010;2023-04-16T13:44:16;101576.16;;;17.01;nan
3082;BME280;1551;51.046;7.010;2023-04-16T13:47:05;101568.66;;;16.89;nan
3082;BME280;1551;51.046;7.010;2023-04-16T13:49:54;101573.44;;;16.68;nan
3082;BME280;1551;51.046;7.010;2023-04-16T13:52:43;101534.44;;;16.35;nan
3082;BME280;1551;51.046;7.010;2023-04-16T13:55:32;101577.19;;;16.53;nan
3082;BME280;1551;51.046;7.010;2023-04-16T13:58:21;101576.59;;;16.37;nan
3082;BME280;1551;51.046;7.010;2023-04-16T14:01:10;101568.59;;;16.51;nan
3082;BME280;1551;51.046;7.010;2023-04-16T14:04:00;101579.41;;;16.71;nan
3082;BME280;1551;51.046;7.010;2023-04-16T14:06:53;101565.53;;;16.75;nan
3082;BME280;1551;51.046;7.010;2023-04-16T14:09:43;101569.94;;;16.70;nan
3082;BME280;1551;51.046;7.010;2023-04-16T14:12:32;101569.31;;;16.59;nan
3082;BME280;1551;51.046;7.010;2023-04-16T14:15:21;101574.31;;;16.24;nan
3082;BME280;1551;51.046;7.010;2023-04-16T14:18:10;101565.13;;;16.08;nan
3082;BME280;1551;51.046;7.010;2023-04-16T14:20:59;101569.97;;;15.80;nan
3082;BME280;1551;51.046;7.010;2023-04-16T14:23:49;101569.06;;;15.81;nan
3082;BME280;1551;51.046;7.010;2023-04-16T14:26:39;101577.59;;;15.86;nan
3082;BME280;1551;51.046;7.010;2023-04-16T14:29:29;101576.72;;;15.87;nan
3082;BME280;1551;51.046;7.010;2023-04-16T14:32:18;101582.91;;;15.77;nan
3082;BME280;1551;51.046;7.010;2023-04-16T14:35:07;101566.59;;;15.73;nan
3082;BME280;1551;51.046;7.010;2023-04-16T14:37:57;101571.97;;;15.61;nan
3082;BME280;1551;51.046;7.010;2023-04-16T14:40:47;101574.56;;;15.61;nan
3082;BME280;1551;51.046;7.010;2023-04-16T14:43:36;101576.38;;;15.56;nan
3082;BME280;1551;51.046;7.010;2023-04-16T14:46:27;101560.13;;;15.51;nan
3082;BME280;1551;51.046;7.010;2023-04-16T14:49:16;101570.31;;;15.59;nan
3082;BME280;1551;51.046;7.010;2023-04-16T14:52:05;101573.19;;;15.90;nan
3082;BME280;1551;51.046;7.010;2023-04-16T14:54:54;101571.16;;;16.08;nan
3082;BME280;1551;51.046;7.010;2023-04-16T14:57:43;101577.16;;;16.09;nan
3082;BME280;1551;51.046;7.010;2023-04-16T15:00:35;101571.09;;;16.11;nan
3082;BME280;1551;51.046;7.010;2023-04-16T15:03:25;101564.91;;;16.20;nan
3082;BME280;1551;51.046;7.010;2023-04-16T15:06:15;101568.13;;;16.31;nan
3082;BME280;1551;51.046;7.010;2023-04-16T15:09:04;101565.56;;;16.31;nan
3082;BME280;1551;51.046;7.010;2023-04-16T15:11:54;101571.53;;;16.33;nan
3082;BME280;1551;51.046;7.010;2023-04-16T15:14:44;101575.75;;;16.37;nan
3082;BME280;1551;51.046;7.010;2023-04-16T15:17:33;101578.19;;;16.44;nan
3082;BME280;1551;51.046;7.010;2023-04-16T15:20:22;101567.81;;;16.46;nan
3082;BME280;1551;51.046;7.010;2023-04-16T15:23:10;101569.13;;;16.68;nan
3082;BME280;1551;51.046;7.010;2023-04-16T15:25:59;101564.44;;;16.85;nan
3082;BME280;1551;51.046;7.010;2023-04-16T15:28:48;101567.09;;;16.82;nan
3082;BME280;1551;51.046;7.010;2023-04-16T15:31:37;101564.19;;;16.56;nan
3082;BME280;1551;51.046;7.010;2023-04-16T15:34:26;101551.47;;;16.45;nan
3082;BME280;1551;51.046;7.010;2023-04-16T15:37:15;101564.41;;;16.45;nan
3082;BME280;1551;51.046;7.010;2023-04-16T15:40:05;101571.31;;;16.43;nan
3082;BME280;1551;51.046;7.010;2023-04-16T15:42:55;101562.69;;;16.44;nan
3082;BME280;1551;51.046;7.010;2023-04-16T15:45:44;101558.47;;;16.40;nan